TAF Text Data
IDs:
Format:
Raw Decoded Include METAR

Data at: 1805 UTC 26 Oct 2021

KATL 261721Z 2618/2724 32012G22KT P6SM SKC
  FM262300 33010KT P6SM SKC
  FM270500 34006KT P6SM SCT250
  FM271600 28003KT P6SM FEW250
  FM272100 17003KT P6SM SCT250